Time;durP1;ratioP1;P1;durP2;ratioP2;P2;SDS_P1;SDS_P2;PMS_P1;PMS_P2;Temp;Humidity;BMP_temperature;BMP_pressure;BME280_temperature;BME280_humidity;BME280_pressure;Samples;Min_cycle;Max_cycle;Signal;HPM_P1;HPM_P2
2022/07/29 00:02:13;;;;;;;0.75;0.28;;;13.60;99.90;;;;;;4979269;28;20045;-85
2022/07/29 00:04:39;;;;;;;0.20;0.20;;;14.20;99.90;;;;;;4979522;28;20046;-85
2022/07/29 00:07:07;;;;;;;1.02;0.28;;;13.60;99.90;;;;;;4979089;28;20057;-84
2022/07/29 00:09:33;;;;;;;1.05;0.32;;;13.70;99.90;;;;;;4978962;28;20132;-84
2022/07/29 00:12:01;;;;;;;0.52;0.25;;;14.20;99.90;;;;;;4978683;28;20485;-85
2022/07/29 00:14:27;;;;;;;1.90;0.30;;;13.70;99.90;;;;;;4996378;28;20038;-85
2022/07/29 00:16:53;;;;;;;1.10;0.40;;;13.70;99.90;;;;;;4996057;28;20042;-86
2022/07/29 00:19:19;;;;;;;1.08;0.40;;;13.80;99.90;;;;;;4978403;28;20051;-85
2022/07/29 00:21:45;;;;;;;0.52;0.30;;;13.80;99.90;;;;;;4996537;28;20038;-85
2022/07/29 00:24:10;;;;;;;1.48;0.13;;;13.80;99.90;;;;;;4978183;28;20049;-85
2022/07/29 00:26:36;;;;;;;0.65;0.30;;;13.90;99.90;;;;;;4979149;28;20133;-85
2022/07/29 00:29:03;;;;;;;0.63;0.22;;;13.90;99.90;;;;;;4995538;28;20559;-84
2022/07/29 00:31:29;;;;;;;0.32;0.30;;;13.90;99.90;;;;;;4975135;28;20050;-85
2022/07/29 00:33:55;;;;;;;0.68;0.30;;;13.90;99.90;;;;;;4970321;28;20097;-84
2022/07/29 00:36:22;;;;;;;1.50;0.35;;;13.90;99.90;;;;;;4978571;28;20121;-85
2022/07/29 00:38:51;;;;;;;0.38;0.22;;;14.00;99.90;;;;;;4978698;28;20469;-84
2022/07/29 00:43:52;;;;;;;0.80;0.30;;;14.00;99.90;;;;;;5011263;26;20049;-85
2022/07/29 00:46:18;;;;;;;0.20;0.20;;;14.10;99.90;;;;;;5054700;28;20446;-84
2022/07/29 00:48:45;;;;;;;2.92;0.45;;;14.10;99.90;;;;;;5037750;28;20103;-84
2022/07/29 00:51:12;;;;;;;1.27;0.30;;;14.20;99.90;;;;;;5036876;28;20049;-84
2022/07/29 00:53:38;;;;;;;1.42;0.30;;;14.20;99.90;;;;;;5055235;28;20045;-84
2022/07/29 00:56:04;;;;;;;0.50;0.20;;;14.20;99.90;;;;;;5036149;28;20041;-84
2022/07/29 00:58:31;;;;;;;0.40;0.30;;;14.30;99.90;;;;;;5054916;28;20084;-85
2022/07/29 01:00:58;;;;;;;1.35;0.30;;;14.30;99.90;;;;;;5037134;28;20041;-84
2022/07/29 01:03:26;;;;;;;0.90;0.30;;;14.60;99.90;;;;;;5034551;28;20045;-85
2022/07/29 01:05:53;;;;;;;0.77;0.30;;;14.30;99.90;;;;;;5015354;28;20103;-84
2022/07/29 01:08:19;;;;;;;1.40;0.30;;;14.40;99.90;;;;;;5035114;28;20034;-85
2022/07/29 01:10:46;;;;;;;0.20;0.20;;;14.40;99.90;;;;;;5034474;28;20038;-85
2022/07/29 01:13:16;;;;;;;0.30;0.22;;;14.50;99.90;;;;;;5007965;28;20049;-86
2022/07/29 01:15:51;;;;;;;1.35;0.30;;;14.40;99.90;;;;;;5016610;28;20049;-85
2022/07/29 01:18:27;;;;;;;0.63;0.25;;;14.50;99.90;;;;;;5026496;28;20041;-85
2022/07/29 01:21:08;;;;;;;1.55;0.30;;;14.50;99.90;;;;;;5036782;28;20049;-85
2022/07/29 01:23:47;;;;;;;1.48;0.40;;;14.50;99.90;;;;;;5025521;28;20045;-85
2022/07/29 01:26:31;;;;;;;0.38;0.20;;;14.50;99.90;;;;;;5019153;28;20056;-85
2022/07/29 01:29:07;;;;;;;0.50;0.30;;;14.50;99.90;;;;;;5054468;28;20048;-84
2022/07/29 01:31:52;;;;;;;0.30;0.30;;;14.60;99.90;;;;;;5036410;28;20130;-85
2022/07/29 01:34:23;;;;;;;0.85;0.30;;;14.50;99.90;;;;;;5049595;28;20064;-84
2022/07/29 01:37:19;;;;;;;0.45;0.30;;;14.50;99.90;;;;;;5050646;28;20076;-85
2022/07/29 01:39:47;;;;;;;0.20;0.20;;;14.50;99.90;;;;;;5051370;28;20094;-85
2022/07/29 01:42:31;;;;;;;0.80;0.30;;;14.50;99.90;;;;;;5035910;28;20059;-85
2022/07/29 01:45:02;;;;;;;1.08;0.20;;;14.50;99.90;;;;;;5034727;28;20106;-85
2022/07/29 01:47:41;;;;;;;2.17;0.30;;;14.70;99.90;;;;;;5052611;28;20035;-84
2022/07/29 01:50:11;;;;;;;0.38;0.20;;;14.50;99.90;;;;;;5036498;28;20400;-85
2022/07/29 01:52:44;;;;;;;1.25;0.35;;;14.50;99.90;;;;;;5029218;28;20165;-85
2022/07/29 01:55:14;;;;;;;0.47;0.40;;;14.90;99.90;;;;;;5037399;28;20045;-85
2022/07/29 01:57:43;;;;;;;1.17;0.28;;;14.50;99.90;;;;;;5037057;28;20045;-85
2022/07/29 02:00:10;;;;;;;0.60;0.30;;;14.50;99.90;;;;;;5046248;28;20053;-85
2022/07/29 02:02:39;;;;;;;0.28;0.25;;;14.50;99.90;;;;;;5035998;28;20063;-84
2022/07/29 02:05:08;;;;;;;0.40;0.20;;;14.60;99.90;;;;;;5035473;28;20045;-84
2022/07/29 02:07:37;;;;;;;0.95;0.30;;;14.50;99.90;;;;;;5022893;28;20040;-84
2022/07/29 02:10:04;;;;;;;0.45;0.30;;;15.00;99.90;;;;;;5052185;28;20120;-84
2022/07/29 02:12:32;;;;;;;1.08;0.30;;;14.60;99.90;;;;;;5030848;28;20091;-85
2022/07/29 02:15:01;;;;;;;1.02;0.30;;;14.50;99.90;;;;;;5035844;28;20041;-85
2022/07/29 02:17:33;;;;;;;0.20;0.15;;;14.60;99.90;;;;;;5053592;28;20139;-84
2022/07/29 02:20:02;;;;;;;2.17;0.30;;;14.50;99.90;;;;;;5052781;28;20079;-84
2022/07/29 02:22:33;;;;;;;0.55;0.30;;;14.60;99.90;;;;;;5052515;28;20052;-85
2022/07/29 02:25:01;;;;;;;0.90;0.25;;;14.70;99.90;;;;;;5031899;28;20045;-85
2022/07/29 02:27:29;;;;;;;1.00;0.30;;;14.60;99.90;;;;;;5027375;28;20052;-84
2022/07/29 02:29:58;;;;;;;1.58;0.40;;;14.60;99.90;;;;;;5022004;28;20055;-85
2022/07/29 02:32:27;;;;;;;0.85;0.35;;;14.60;99.90;;;;;;5052986;28;20454;-84
2022/07/29 02:34:56;;;;;;;0.85;0.30;;;14.70;99.90;;;;;;5053100;28;20080;-85
2022/07/29 02:37:23;;;;;;;0.25;0.20;;;15.10;99.90;;;;;;5037185;28;20047;-85
2022/07/29 02:39:52;;;;;;;4.30;0.35;;;15.10;99.90;;;;;;5052244;28;20563;-85
2022/07/29 02:42:23;;;;;;;0.73;0.20;;;14.60;99.90;;;;;;5014569;28;20088;-85
2022/07/29 02:44:49;;;;;;;1.95;0.30;;;15.10;99.90;;;;;;5012437;28;20054;-86
2022/07/29 02:47:23;;;;;;;0.52;0.30;;;14.50;99.90;;;;;;5000905;28;20399;-85
2022/07/29 02:49:59;;;;;;;1.70;0.47;;;14.70;99.90;;;;;;5032826;28;20044;-85
2022/07/29 02:52:50;;;;;;;1.33;0.40;;;14.60;99.90;;;;;;5034929;28;20040;-85
2022/07/29 02:55:31;;;;;;;1.23;0.25;;;14.70;99.90;;;;;;5034682;28;20131;-84
2022/07/29 02:58:30;;;;;;;4.18;0.30;;;14.70;99.90;;;;;;5034439;28;20033;-85
2022/07/29 03:01:23;;;;;;;0.68;0.20;;;14.70;99.90;;;;;;5034451;28;20045;-85
2022/07/29 03:03:53;;;;;;;2.15;0.30;;;14.70;99.90;;;;;;5035349;28;20380;-85
2022/07/29 03:06:22;;;;;;;1.83;0.50;;;14.60;99.90;;;;;;5052743;28;20119;-85
2022/07/29 03:08:49;;;;;;;0.20;0.20;;;14.60;99.90;;;;;;5052042;28;20033;-85
2022/07/29 03:11:16;;;;;;;0.95;0.30;;;14.60;99.90;;;;;;5030842;28;20507;-84
2022/07/29 03:13:50;;;;;;;0.75;0.30;;;14.60;99.90;;;;;;5049395;28;20092;-85
2022/07/29 03:16:19;;;;;;;0.80;0.40;;;14.70;99.90;;;;;;5031388;28;20044;-85
2022/07/29 03:18:47;;;;;;;1.98;0.30;;;14.60;99.90;;;;;;5039564;28;20041;-85
2022/07/29 03:21:19;;;;;;;0.75;0.32;;;14.60;99.90;;;;;;5028462;28;20049;-85
2022/07/29 03:23:45;;;;;;;0.75;0.40;;;14.60;99.90;;;;;;5052761;28;20053;-85
2022/07/29 03:26:12;;;;;;;0.80;0.28;;;14.60;99.90;;;;;;5018211;28;20052;-85
2022/07/29 03:28:40;;;;;;;1.88;0.40;;;14.70;99.90;;;;;;5051700;28;20044;-85
2022/07/29 03:31:09;;;;;;;0.55;0.40;;;14.60;99.90;;;;;;5023259;28;20415;-85
2022/07/29 03:33:34;;;;;;;1.08;0.30;;;14.60;99.90;;;;;;5030786;28;20527;-85
2022/07/29 03:36:02;;;;;;;1.50;0.50;;;14.50;99.90;;;;;;5031693;28;20089;-84
2022/07/29 03:38:30;;;;;;;0.93;0.30;;;14.60;99.90;;;;;;5018023;28;20380;-86
2022/07/29 03:41:03;;;;;;;0.50;0.30;;;14.50;99.90;;;;;;5031613;28;20438;-85
2022/07/29 03:43:31;;;;;;;0.70;0.30;;;14.50;99.90;;;;;;5014325;28;20064;-85
2022/07/29 03:46:00;;;;;;;0.57;0.45;;;14.50;99.90;;;;;;5014507;28;20076;-85
2022/07/29 03:48:29;;;;;;;0.45;0.30;;;14.60;99.90;;;;;;5014495;28;20069;-85
2022/07/29 03:50:58;;;;;;;2.22;0.30;;;14.50;99.90;;;;;;5014377;28;20077;-85
2022/07/29 03:53:24;;;;;;;0.80;0.25;;;14.50;99.90;;;;;;5014187;28;20042;-85
2022/07/29 03:55:59;;;;;;;1.63;0.38;;;14.50;99.90;;;;;;5032166;28;20116;-85
2022/07/29 03:58:27;;;;;;;1.23;0.50;;;14.50;99.90;;;;;;5014747;28;20049;-86
2022/07/29 04:00:54;;;;;;;0.75;0.30;;;14.50;99.90;;;;;;5013754;28;20046;-85
2022/07/29 04:03:23;;;;;;;1.40;0.32;;;14.60;99.90;;;;;;5013400;28;20411;-85
2022/07/29 04:05:59;;;;;;;0.50;0.30;;;14.60;99.90;;;;;;5031916;28;20051;-86
2022/07/29 04:08:27;;;;;;;0.60;0.30;;;14.60;99.90;;;;;;5014721;28;20614;-84
2022/07/29 04:10:53;;;;;;;0.80;0.30;;;14.60;99.90;;;;;;5014662;28;20462;-85
2022/07/29 04:13:22;;;;;;;0.60;0.38;;;14.60;99.90;;;;;;5013972;28;20124;-86
2022/07/29 04:15:48;;;;;;;0.75;0.25;;;14.60;99.90;;;;;;4980307;28;20046;-85
2022/07/29 04:18:16;;;;;;;2.00;0.40;;;14.60;99.90;;;;;;4994622;28;20045;-86
2022/07/29 04:20:44;;;;;;;0.95;0.30;;;14.70;99.90;;;;;;5012302;28;20046;-86
2022/07/29 04:23:10;;;;;;;1.23;0.40;;;14.70;99.90;;;;;;4978195;28;20045;-85
2022/07/29 04:25:40;;;;;;;0.95;0.30;;;14.70;99.90;;;;;;5005443;28;20543;-85
2022/07/29 04:28:07;;;;;;;0.40;0.30;;;14.40;99.90;;;;;;5013542;28;20056;-85
2022/07/29 04:30:34;;;;;;;0.45;0.35;;;14.70;99.90;;;;;;5014100;28;20073;-85
2022/07/29 04:33:02;;;;;;;0.77;0.50;;;14.80;99.90;;;;;;5013184;28;20045;-86
2022/07/29 04:35:35;;;;;;;4.15;0.50;;;15.20;99.90;;;;;;5013625;28;20041;-85
2022/07/29 04:38:02;;;;;;;0.93;0.40;;;14.80;99.90;;;;;;5013975;28;20049;-85
2022/07/29 04:40:28;;;;;;;0.77;0.30;;;14.80;99.90;;;;;;4997013;28;20057;-86
2022/07/29 04:42:54;;;;;;;0.90;0.40;;;14.90;99.90;;;;;;5031066;28;20137;-86
2022/07/29 04:45:20;;;;;;;2.40;0.40;;;14.90;99.90;;;;;;5032626;28;20080;-85
2022/07/29 04:47:54;;;;;;;3.47;1.27;;;14.90;99.90;;;;;;5000305;28;20045;-85
2022/07/29 04:50:22;;;;;;;0.65;0.30;;;14.90;99.90;;;;;;5036053;28;20053;-86
2022/07/29 04:52:48;;;;;;;0.77;0.20;;;14.90;99.90;;;;;;5017587;28;20048;-86
2022/07/29 04:55:17;;;;;;;0.43;0.30;;;15.00;99.90;;;;;;5034738;28;20049;-86
2022/07/29 04:57:45;;;;;;;1.38;0.40;;;15.00;99.90;;;;;;5017290;28;20152;-86
2022/07/29 05:00:11;;;;;;;1.75;0.40;;;15.00;99.90;;;;;;5017389;28;20187;-88
2022/07/29 05:02:40;;;;;;;0.85;0.30;;;15.00;99.90;;;;;;5034659;28;20381;-85
2022/07/29 05:05:06;;;;;;;1.17;0.30;;;15.10;99.90;;;;;;5017187;28;20538;-86
2022/07/29 05:07:31;;;;;;;0.47;0.40;;;14.90;99.90;;;;;;5034231;28;20092;-86
2022/07/29 05:09:59;;;;;;;0.80;0.40;;;15.00;99.90;;;;;;5034805;28;20059;-86
2022/07/29 05:12:25;;;;;;;0.52;0.32;;;15.10;99.90;;;;;;5000313;28;20210;-85
2022/07/29 05:14:54;;;;;;;1.92;0.40;;;15.10;99.90;;;;;;5017721;28;20133;-85
2022/07/29 05:17:20;;;;;;;1.27;0.30;;;15.20;99.90;;;;;;5015744;28;20116;-85
2022/07/29 05:19:46;;;;;;;1.42;0.40;;;15.10;99.90;;;;;;5034611;28;20107;-85
2022/07/29 05:22:11;;;;;;;0.63;0.38;;;15.20;99.90;;;;;;5016847;28;20049;-86
2022/07/29 05:24:37;;;;;;;1.10;0.43;;;15.10;99.90;;;;;;5016674;28;20049;-85
2022/07/29 05:27:15;;;;;;;2.55;0.60;;;15.20;99.90;;;;;;5016647;28;20067;-86
2022/07/29 05:29:40;;;;;;;1.80;0.35;;;15.10;99.90;;;;;;5016425;28;20041;-87
2022/07/29 05:32:06;;;;;;;1.95;0.30;;;15.20;99.90;;;;;;5033769;28;20488;-85
2022/07/29 05:34:32;;;;;;;1.02;0.57;;;15.20;99.90;;;;;;5016893;28;20053;-87
2022/07/29 05:36:58;;;;;;;0.45;0.30;;;15.20;99.90;;;;;;5015900;28;20404;-86
2022/07/29 05:39:24;;;;;;;0.68;0.30;;;15.30;99.90;;;;;;5032863;28;20041;-86
2022/07/29 05:41:50;;;;;;;0.90;0.30;;;15.30;99.90;;;;;;5016186;28;20053;-85
2022/07/29 05:44:16;;;;;;;0.60;0.40;;;15.30;99.90;;;;;;5016354;28;20045;-85
2022/07/29 05:46:45;;;;;;;3.35;0.30;;;15.40;99.90;;;;;;5032416;28;20045;-86
2022/07/29 05:49:10;;;;;;;2.90;1.17;;;15.40;99.90;;;;;;5032628;28;20385;-87
2022/07/29 05:51:36;;;;;;;0.95;0.30;;;15.50;99.90;;;;;;5031817;28;20056;-85
2022/07/29 05:54:02;;;;;;;1.25;0.40;;;15.50;99.90;;;;;;5032255;28;20046;-85
2022/07/29 05:56:28;;;;;;;3.13;0.50;;;15.50;99.90;;;;;;5032577;28;20053;-86
2022/07/29 05:58:56;;;;;;;0.90;0.35;;;15.60;99.90;;;;;;5032290;28;20122;-86
2022/07/29 06:05:30;;;;;;;2.20;0.47;;;16.10;99.90;;;;;;5033865;28;20406;-86
2022/07/29 06:07:56;;;;;;;1.30;0.40;;;15.90;99.90;;;;;;5032194;28;20057;-86
2022/07/29 06:10:22;;;;;;;1.67;0.60;;;16.50;99.90;;;;;;5033414;28;20099;-87
2022/07/29 06:12:47;;;;;;;0.73;0.38;;;16.10;99.90;;;;;;5032611;28;20050;-87
2022/07/29 06:15:19;;;;;;;1.27;0.40;;;16.10;99.90;;;;;;5031952;28;20496;-85
2022/07/29 06:17:45;;;;;;;0.90;0.40;;;16.20;99.90;;;;;;5031732;28;20045;-87
2022/07/29 06:20:10;;;;;;;2.75;0.40;;;15.80;99.90;;;;;;5033786;28;20045;-86
2022/07/29 06:22:36;;;;;;;0.30;0.30;;;16.30;99.90;;;;;;5033062;28;20049;-86
2022/07/29 06:26:00;;;;;;;1.20;0.38;;;16.30;99.90;;;;;;5044589;28;20076;-91
2022/07/29 06:28:26;;;;;;;1.15;0.40;;;16.30;99.90;;;;;;4975681;28;20059;-89
2022/07/29 06:30:51;;;;;;;1.13;0.40;;;16.40;99.90;;;;;;4972898;28;20050;-89
2022/07/29 07:39:54;;;;;;;0.43;0.30;;;18.00;99.90;;;;;;5549210;23;20423;-87
2022/07/29 07:57:14;;;;;;;0.80;0.40;;;18.10;99.90;;;;;;5080329;23;20066;-84
2022/07/29 08:09:49;;;;;;;1.55;0.55;;;18.40;99.90;;;;;;4917578;29;20176;-86
2022/07/29 08:12:18;;;;;;;1.15;0.60;;;18.40;99.90;;;;;;4918140;29;20519;-86
2022/07/29 08:14:50;;;;;;;2.20;0.50;;;18.50;99.90;;;;;;4965699;23;20405;-86
2022/07/29 08:17:16;;;;;;;1.60;0.50;;;18.60;99.90;;;;;;4909324;29;20056;-85
2022/07/29 08:19:55;;;;;;;1.23;0.50;;;18.60;99.90;;;;;;4880560;29;20463;-85
2022/07/29 08:22:21;;;;;;;0.60;0.40;;;18.70;99.90;;;;;;4904357;29;20115;-85
2022/07/29 08:25:37;;;;;;;;;;;;;;;;;;;;;
2022/07/29 08:28:46;;;;;;;;;;;;;;;;;;;;;
2022/07/29 10:36:25;;;;;;;;;;;;;;;;;;;;;
2022/07/29 10:46:24;;;;;;;1.95;0.60;;;20.70;99.90;;;;;;6310298;22;20035;-86
2022/07/29 10:58:00;;;;;;;;;;;;;;;;;;;;;
2022/07/29 11:35:33;;;;;;;1.48;0.68;;;21.00;99.90;;;;;;5404453;22;19064985;-88
2022/07/29 11:38:25;;;;;;;2.42;0.60;;;21.00;99.90;;;;;;6196957;23;20024;-85
2022/07/29 11:41:44;;;;;;;3.78;0.70;;;21.00;99.90;;;;;;6194359;23;20027;-85
2022/07/29 11:44:33;;;;;;;1.45;0.52;;;21.00;99.90;;;;;;6196727;23;20489;-86
2022/07/29 11:51:10;;;;;;;2.45;0.60;;;21.10;99.90;;;;;;6159961;23;20370;-86
2022/07/29 11:54:05;;;;;;;1.05;0.65;;;21.20;99.90;;;;;;6019586;23;20030;-85
2022/07/29 11:56:43;;;;;;;3.80;0.70;;;21.30;99.90;;;;;;5991896;23;20019;-84
2022/07/29 11:59:49;;;;;;;2.70;0.80;;;21.40;99.90;;;;;;5959249;24;20133;-85
2022/07/29 12:02:15;;;;;;;1.27;0.50;;;21.50;99.90;;;;;;5959410;24;20021;-85
2022/07/29 12:04:59;;;;;;;2.28;0.63;;;21.60;99.90;;;;;;5935980;24;20068;-86
2022/07/29 16:46:55;;;;;;;;;;;26.50;82.00;;;;;;6196151;22;20068;-90
2022/07/29 17:02:44;;;;;;;0.98;0.50;;;25.90;82.50;;;;;;6270830;22;20027;-85
2022/07/29 17:05:23;;;;;;;1.85;0.40;;;25.80;83.10;;;;;;6307050;22;20506;-87
2022/07/29 17:41:25;;;;;;;1.65;0.57;;;24.30;89.60;;;;;;6227121;22;20028;-87
2022/07/29 17:57:46;;;;;;;1.33;0.55;;;23.70;91.90;;;;;;6285841;22;20080;-86
2022/07/29 18:00:55;;;;;;;2.33;0.60;;;23.70;92.40;;;;;;6307850;22;20024;-88
2022/07/29 18:03:43;;;;;;;2.22;0.60;;;23.60;93.20;;;;;;6294637;22;20441;-89
2022/07/29 18:06:11;;;;;;;2.38;0.70;;;23.50;93.60;;;;;;6307519;22;20019;-87
2022/07/29 18:08:51;;;;;;;2.67;0.82;;;23.40;93.50;;;;;;6254105;22;20019;-87
2022/07/29 18:11:35;;;;;;;3.10;0.70;;;23.30;93.50;;;;;;6306235;22;20022;-86
2022/07/29 18:14:47;;;;;;;2.92;0.60;;;23.20;93.60;;;;;;6279402;22;20400;-87
2022/07/29 18:17:24;;;;;;;3.33;0.80;;;23.10;94.10;;;;;;6182371;23;20060;-87
2022/07/29 19:39:14;;;;;;;6.97;0.70;;;19.60;99.90;;;;;;6272415;22;20024;-87
2022/07/29 19:41:54;;;;;;;1.90;0.80;;;19.50;99.90;;;;;;6209442;22;20014;-87
2022/07/29 19:44:24;;;;;;;3.63;0.80;;;19.40;99.90;;;;;;6310574;22;20023;-86
2022/07/29 19:53:54;;;;;;;2.13;0.70;;;19.20;99.90;;;;;;6337587;22;20025;-87
2022/07/29 19:56:20;;;;;;;1.88;0.70;;;19.10;99.90;;;;;;6285229;22;20290;-85
2022/07/29 19:58:46;;;;;;;2.95;0.70;;;19.00;99.90;;;;;;6310834;22;20387;-87
2022/07/29 20:01:11;;;;;;;3.03;0.70;;;19.00;99.90;;;;;;6286362;22;20022;-86
2022/07/29 20:03:43;;;;;;;3.33;0.90;;;18.90;99.90;;;;;;6339515;22;20341;-85
2022/07/29 20:06:09;;;;;;;2.45;0.75;;;18.80;99.90;;;;;;6311066;22;20030;-85
2022/07/29 20:08:35;;;;;;;1.40;0.60;;;18.70;99.90;;;;;;6339428;22;20015;-85
2022/07/29 20:11:02;;;;;;;2.70;0.82;;;18.70;99.90;;;;;;6339842;22;20018;-86
2022/07/29 20:13:30;;;;;;;1.17;0.68;;;18.50;99.90;;;;;;6285480;22;20102;-85
2022/07/29 20:15:56;;;;;;;1.20;0.63;;;18.50;99.90;;;;;;6311773;22;20022;-85
2022/07/29 20:18:22;;;;;;;1.80;0.63;;;18.30;99.90;;;;;;6286266;22;20045;-85
2022/07/29 20:20:48;;;;;;;3.55;0.90;;;18.40;99.90;;;;;;6310650;22;20019;-85
2022/07/29 20:23:15;;;;;;;4.38;1.05;;;18.20;99.90;;;;;;6339000;22;20022;-86
2022/07/29 20:25:41;;;;;;;3.70;0.75;;;18.30;99.90;;;;;;6311293;22;20015;-84
2022/07/29 20:28:07;;;;;;;1.40;0.70;;;18.20;99.90;;;;;;6310571;22;20019;-85
2022/07/29 20:30:32;;;;;;;1.52;0.77;;;18.20;99.90;;;;;;6338926;22;20089;-84
2022/07/29 20:32:58;;;;;;;2.10;0.68;;;18.20;99.90;;;;;;6312291;22;20098;-84
2022/07/29 20:35:24;;;;;;;1.52;0.80;;;18.20;99.90;;;;;;6338457;22;20015;-87
2022/07/29 20:37:50;;;;;;;1.60;0.80;;;18.10;99.90;;;;;;6339079;22;20445;-85
2022/07/29 20:40:16;;;;;;;5.50;0.88;;;18.00;99.90;;;;;;6311597;22;20046;-86
2022/07/29 20:42:42;;;;;;;3.30;1.48;;;18.00;99.90;;;;;;6311486;22;20022;-85
2022/07/29 20:45:08;;;;;;;1.83;0.80;;;18.00;99.90;;;;;;6285761;22;20054;-85
2022/07/29 20:47:34;;;;;;;1.45;0.80;;;17.90;99.90;;;;;;6285533;22;20486;-85
2022/07/29 20:50:00;;;;;;;1.75;0.90;;;17.80;99.90;;;;;;6285865;22;20023;-84
2022/07/29 20:52:28;;;;;;;1.10;0.70;;;17.80;99.90;;;;;;6335550;22;20039;-84
2022/07/29 20:55:56;;;;;;;2.70;0.80;;;17.80;99.90;;;;;;6308043;22;20019;-86
2022/07/29 20:58:32;;;;;;;4.65;0.80;;;17.60;99.90;;;;;;6280533;22;20020;-86
2022/07/29 21:01:12;;;;;;;2.05;0.80;;;17.60;99.90;;;;;;6280149;22;20019;-86
2022/07/29 21:03:45;;;;;;;3.22;1.02;;;17.60;99.90;;;;;;6279705;22;20108;-86
2022/07/29 21:10:42;;;;;;;1.33;0.85;;;17.60;99.90;;;;;;6282127;22;20026;-87
2022/07/29 21:13:13;;;;;;;2.90;1.08;;;17.40;99.90;;;;;;6182753;23;20014;-85
2022/07/29 21:15:47;;;;;;;3.10;1.00;;;17.70;99.90;;;;;;6158215;23;20017;-85
2022/07/29 21:18:26;;;;;;;2.28;0.98;;;17.40;99.90;;;;;;6158147;23;20147;-86
2022/07/29 21:21:02;;;;;;;1.40;0.80;;;17.30;99.90;;;;;;6158376;23;20023;-86
2022/07/29 21:23:29;;;;;;;3.55;0.90;;;17.30;99.90;;;;;;6157830;23;20017;-86
2022/07/29 21:25:55;;;;;;;1.95;1.02;;;17.20;99.90;;;;;;6158191;23;20017;-86
2022/07/29 21:28:26;;;;;;;1.55;0.77;;;17.20;99.90;;;;;;6157825;23;20329;-86
2022/07/29 21:31:02;;;;;;;1.80;0.82;;;17.10;99.90;;;;;;6158890;23;20499;-86
2022/07/29 21:33:59;;;;;;;2.95;0.93;;;17.10;99.90;;;;;;6158026;23;20024;-86
2022/07/29 21:36:35;;;;;;;3.92;0.90;;;17.00;99.90;;;;;;6182812;23;20438;-85
2022/07/29 21:39:10;;;;;;;3.45;1.00;;;17.00;99.90;;;;;;6157525;23;20028;-86
2022/07/29 21:41:38;;;;;;;1.95;0.77;;;17.00;99.90;;;;;;6156150;23;20057;-85
2022/07/29 21:44:13;;;;;;;1.95;1.00;;;16.90;99.90;;;;;;6157889;23;20025;-86
2022/07/29 21:46:44;;;;;;;3.47;0.95;;;17.00;99.90;;;;;;6157701;23;20028;-85
2022/07/29 21:49:12;;;;;;;2.05;0.80;;;16.80;99.90;;;;;;6219097;22;20519;-86
2022/07/29 21:51:46;;;;;;;2.78;0.80;;;16.70;99.90;;;;;;6306107;22;20022;-85
2022/07/29 21:54:14;;;;;;;2.60;0.95;;;16.70;99.90;;;;;;6280286;22;20019;-85
2022/07/29 21:56:42;;;;;;;1.75;1.00;;;16.70;99.90;;;;;;6306627;22;20029;-85
2022/07/29 21:59:24;;;;;;;2.53;0.90;;;16.70;99.90;;;;;;6305726;22;20019;-85
2022/07/29 22:02:28;;;;;;;1.13;0.85;;;16.70;99.90;;;;;;6277465;22;20054;-86
2022/07/29 22:32:48;;;;;;;;;;;;;;;;;;;;;
2022/07/29 23:27:53;;;;;;;;;;;;;;;;;;;;;
2022/07/29 23:47:25;;;;;;;1.83;1.17;;;15.30;99.90;;;;;;6332360;22;20030;-87
